sensor_id;sensor_type;location;lat;lon;timestamp;P1;durP1;ratioP1;P2;durP2;ratioP2
50769;SDS011;36740;48.698;11.472;2022-11-15T00:01:43;16.23;;;11.52;;
50769;SDS011;36740;48.698;11.472;2022-11-15T00:04:29;17.48;;;12.68;;
50769;SDS011;36740;48.698;11.472;2022-11-15T00:07:15;20.95;;;10.60;;
50769;SDS011;36740;48.698;11.472;2022-11-15T00:10:01;21.20;;;13.57;;
50769;SDS011;36740;48.698;11.472;2022-11-15T00:12:46;18.17;;;10.90;;
50769;SDS011;36740;48.698;11.472;2022-11-15T00:15:36;16.17;;;11.02;;
50769;SDS011;36740;48.698;11.472;2022-11-15T00:18:22;17.52;;;12.10;;
50769;SDS011;36740;48.698;11.472;2022-11-15T00:21:09;21.73;;;12.32;;
50769;SDS011;36740;48.698;11.472;2022-11-15T00:23:56;15.02;;;10.68;;
50769;SDS011;36740;48.698;11.472;2022-11-15T00:26:43;14.93;;;11.65;;
50769;SDS011;36740;48.698;11.472;2022-11-15T00:29:29;18.05;;;11.93;;
50769;SDS011;36740;48.698;11.472;2022-11-15T00:32:15;17.10;;;11.32;;
50769;SDS011;36740;48.698;11.472;2022-11-15T00:35:01;17.55;;;12.82;;
50769;SDS011;36740;48.698;11.472;2022-11-15T00:37:47;16.33;;;10.07;;
50769;SDS011;36740;48.698;11.472;2022-11-15T00:40:33;17.83;;;12.52;;
50769;SDS011;36740;48.698;11.472;2022-11-15T00:43:18;11.80;;;9.05;;
50769;SDS011;36740;48.698;11.472;2022-11-15T00:46:04;17.65;;;10.40;;
50769;SDS011;36740;48.698;11.472;2022-11-15T00:48:50;19.15;;;9.63;;
50769;SDS011;36740;48.698;11.472;2022-11-15T00:51:36;18.50;;;8.77;;
50769;SDS011;36740;48.698;11.472;2022-11-15T00:54:22;15.05;;;10.25;;
50769;SDS011;36740;48.698;11.472;2022-11-15T00:57:07;15.48;;;11.13;;
50769;SDS011;36740;48.698;11.472;2022-11-15T00:59:53;16.33;;;9.80;;
50769;SDS011;36740;48.698;11.472;2022-11-15T01:02:39;17.35;;;12.13;;
50769;SDS011;36740;48.698;11.472;2022-11-15T01:05:25;17.52;;;9.27;;
50769;SDS011;36740;48.698;11.472;2022-11-15T01:08:14;14.88;;;9.85;;
50769;SDS011;36740;48.698;11.472;2022-11-15T01:11:04;24.53;;;11.40;;
50769;SDS011;36740;48.698;11.472;2022-11-15T01:13:52;15.00;;;10.57;;
50769;SDS011;36740;48.698;11.472;2022-11-15T01:16:40;18.67;;;10.65;;
50769;SDS011;36740;48.698;11.472;2022-11-15T01:19:25;11.05;;;8.32;;
50769;SDS011;36740;48.698;11.472;2022-11-15T01:22:11;14.73;;;10.25;;
50769;SDS011;36740;48.698;11.472;2022-11-15T01:24:57;15.80;;;12.27;;
50769;SDS011;36740;48.698;11.472;2022-11-15T01:27:43;18.80;;;12.70;;
50769;SDS011;36740;48.698;11.472;2022-11-15T01:30:29;13.05;;;8.57;;
50769;SDS011;36740;48.698;11.472;2022-11-15T01:33:14;19.45;;;12.90;;
50769;SDS011;36740;48.698;11.472;2022-11-15T01:36:04;14.85;;;10.35;;
50769;SDS011;36740;48.698;11.472;2022-11-15T01:38:54;15.93;;;9.20;;
50769;SDS011;36740;48.698;11.472;2022-11-15T01:41:41;13.27;;;9.40;;
50769;SDS011;36740;48.698;11.472;2022-11-15T01:47:20;16.15;;;10.60;;
50769;SDS011;36740;48.698;11.472;2022-11-15T01:50:10;14.68;;;9.65;;
50769;SDS011;36740;48.698;11.472;2022-11-15T01:52:59;10.73;;;8.77;;
50769;SDS011;36740;48.698;11.472;2022-11-15T01:55:45;14.43;;;10.43;;
50769;SDS011;36740;48.698;11.472;2022-11-15T01:58:31;14.52;;;9.55;;
50769;SDS011;36740;48.698;11.472;2022-11-15T02:01:17;11.38;;;9.27;;
50769;SDS011;36740;48.698;11.472;2022-11-15T02:07:02;11.07;;;8.98;;
50769;SDS011;36740;48.698;11.472;2022-11-15T02:09:49;13.75;;;10.88;;
50769;SDS011;36740;48.698;11.472;2022-11-15T02:12:37;11.18;;;8.40;;
50769;SDS011;36740;48.698;11.472;2022-11-15T02:15:24;13.50;;;8.00;;
50769;SDS011;36740;48.698;11.472;2022-11-15T02:18:23;14.95;;;8.90;;
50769;SDS011;36740;48.698;11.472;2022-11-15T02:30:03;13.48;;;10.82;;
50769;SDS011;36740;48.698;11.472;2022-11-15T02:36:33;16.77;;;11.32;;
50769;SDS011;36740;48.698;11.472;2022-11-15T02:42:34;16.23;;;9.48;;
50769;SDS011;36740;48.698;11.472;2022-11-15T02:45:45;16.50;;;12.13;;
50769;SDS011;36740;48.698;11.472;2022-11-15T02:48:37;14.23;;;10.45;;
50769;SDS011;36740;48.698;11.472;2022-11-15T02:51:24;15.93;;;10.43;;
50769;SDS011;36740;48.698;11.472;2022-11-15T02:54:14;34.47;;;11.40;;
50769;SDS011;36740;48.698;11.472;2022-11-15T02:57:06;16.02;;;10.90;;
50769;SDS011;36740;48.698;11.472;2022-11-15T03:11:46;13.98;;;9.10;;
50769;SDS011;36740;48.698;11.472;2022-11-15T03:14:40;15.07;;;10.70;;
50769;SDS011;36740;48.698;11.472;2022-11-15T03:20:28;18.95;;;13.13;;
50769;SDS011;36740;48.698;11.472;2022-11-15T03:23:15;18.50;;;12.13;;
50769;SDS011;36740;48.698;11.472;2022-11-15T03:26:03;14.50;;;10.77;;
50769;SDS011;36740;48.698;11.472;2022-11-15T03:28:53;17.80;;;10.80;;
50769;SDS011;36740;48.698;11.472;2022-11-15T03:31:44;18.95;;;13.02;;
50769;SDS011;36740;48.698;11.472;2022-11-15T03:34:39;15.40;;;13.07;;
50769;SDS011;36740;48.698;11.472;2022-11-15T03:40:47;44.25;;;13.55;;
50769;SDS011;36740;48.698;11.472;2022-11-15T03:43:47;45.58;;;13.73;;
50769;SDS011;36740;48.698;11.472;2022-11-15T03:46:46;19.73;;;10.50;;
50769;SDS011;36740;48.698;11.472;2022-11-15T03:49:44;19.77;;;11.25;;
50769;SDS011;36740;48.698;11.472;2022-11-15T03:52:35;16.73;;;9.23;;
50769;SDS011;36740;48.698;11.472;2022-11-15T03:55:22;16.58;;;11.23;;
50769;SDS011;36740;48.698;11.472;2022-11-15T03:58:08;51.40;;;13.07;;
50769;SDS011;36740;48.698;11.472;2022-11-15T04:00:54;10.75;;;8.95;;
50769;SDS011;36740;48.698;11.472;2022-11-15T04:03:40;15.02;;;9.70;;
50769;SDS011;36740;48.698;11.472;2022-11-15T04:06:26;17.40;;;12.38;;
50769;SDS011;36740;48.698;11.472;2022-11-15T04:09:12;14.93;;;10.98;;
50769;SDS011;36740;48.698;11.472;2022-11-15T04:11:57;15.35;;;11.40;;
50769;SDS011;36740;48.698;11.472;2022-11-15T04:14:43;13.90;;;9.43;;
50769;SDS011;36740;48.698;11.472;2022-11-15T04:17:50;17.10;;;11.30;;
50769;SDS011;36740;48.698;11.472;2022-11-15T04:20:40;16.25;;;12.13;;
50769;SDS011;36740;48.698;11.472;2022-11-15T04:23:44;18.63;;;11.15;;
50769;SDS011;36740;48.698;11.472;2022-11-15T04:26:49;13.27;;;10.68;;
50769;SDS011;36740;48.698;11.472;2022-11-15T04:29:35;22.13;;;10.68;;
50769;SDS011;36740;48.698;11.472;2022-11-15T04:32:20;17.65;;;10.73;;
50769;SDS011;36740;48.698;11.472;2022-11-15T04:35:06;16.05;;;12.25;;
50769;SDS011;36740;48.698;11.472;2022-11-15T04:37:53;10.32;;;8.40;;
50769;SDS011;36740;48.698;11.472;2022-11-15T04:40:39;17.10;;;8.82;;
50769;SDS011;36740;48.698;11.472;2022-11-15T04:43:25;19.20;;;10.75;;
50769;SDS011;36740;48.698;11.472;2022-11-15T04:46:10;16.90;;;9.93;;
50769;SDS011;36740;48.698;11.472;2022-11-15T04:48:56;15.05;;;8.43;;
50769;SDS011;36740;48.698;11.472;2022-11-15T04:51:42;17.05;;;10.45;;
50769;SDS011;36740;48.698;11.472;2022-11-15T04:54:28;11.07;;;9.00;;
50769;SDS011;36740;48.698;11.472;2022-11-15T04:57:14;21.58;;;10.73;;
50769;SDS011;36740;48.698;11.472;2022-11-15T05:00:00;16.67;;;11.93;;
50769;SDS011;36740;48.698;11.472;2022-11-15T05:02:45;15.10;;;10.68;;
50769;SDS011;36740;48.698;11.472;2022-11-15T05:05:50;17.05;;;12.68;;
50769;SDS011;36740;48.698;11.472;2022-11-15T05:08:35;13.98;;;9.88;;
50769;SDS011;36740;48.698;11.472;2022-11-15T05:11:21;56.22;;;12.73;;
50769;SDS011;36740;48.698;11.472;2022-11-15T05:14:07;23.25;;;10.38;;
50769;SDS011;36740;48.698;11.472;2022-11-15T05:16:53;17.38;;;10.75;;
50769;SDS011;36740;48.698;11.472;2022-11-15T05:19:39;28.58;;;13.00;;
50769;SDS011;36740;48.698;11.472;2022-11-15T05:22:25;33.80;;;13.50;;
50769;SDS011;36740;48.698;11.472;2022-11-15T05:25:11;25.77;;;10.50;;
50769;SDS011;36740;48.698;11.472;2022-11-15T05:27:56;16.17;;;13.77;;
50769;SDS011;36740;48.698;11.472;2022-11-15T05:30:42;19.08;;;13.18;;
50769;SDS011;36740;48.698;11.472;2022-11-15T05:33:28;28.98;;;14.55;;
50769;SDS011;36740;48.698;11.472;2022-11-15T05:36:17;19.00;;;11.82;;
50769;SDS011;36740;48.698;11.472;2022-11-15T05:39:23;34.45;;;15.77;;
50769;SDS011;36740;48.698;11.472;2022-11-15T05:42:09;38.63;;;12.20;;
50769;SDS011;36740;48.698;11.472;2022-11-15T05:44:57;25.63;;;12.30;;
50769;SDS011;36740;48.698;11.472;2022-11-15T05:47:44;37.00;;;16.15;;
50769;SDS011;36740;48.698;11.472;2022-11-15T05:50:32;18.80;;;12.43;;
50769;SDS011;36740;48.698;11.472;2022-11-15T05:53:19;21.15;;;16.15;;
50769;SDS011;36740;48.698;11.472;2022-11-15T05:56:09;17.30;;;12.02;;
50769;SDS011;36740;48.698;11.472;2022-11-15T05:58:55;28.45;;;16.30;;
50769;SDS011;36740;48.698;11.472;2022-11-15T06:01:42;18.73;;;14.45;;
50769;SDS011;36740;48.698;11.472;2022-11-15T06:04:28;19.73;;;15.52;;
50769;SDS011;36740;48.698;11.472;2022-11-15T06:07:14;19.17;;;14.48;;
50769;SDS011;36740;48.698;11.472;2022-11-15T06:09:59;26.23;;;15.02;;
50769;SDS011;36740;48.698;11.472;2022-11-15T06:12:45;22.35;;;13.30;;
50769;SDS011;36740;48.698;11.472;2022-11-15T06:15:31;30.17;;;16.27;;
50769;SDS011;36740;48.698;11.472;2022-11-15T06:18:19;22.73;;;15.77;;
50769;SDS011;36740;48.698;11.472;2022-11-15T06:21:04;25.90;;;17.40;;
50769;SDS011;36740;48.698;11.472;2022-11-15T06:23:51;23.48;;;14.50;;
50769;SDS011;36740;48.698;11.472;2022-11-15T06:26:37;20.98;;;17.83;;
50769;SDS011;36740;48.698;11.472;2022-11-15T06:29:22;25.42;;;18.20;;
50769;SDS011;36740;48.698;11.472;2022-11-15T06:32:08;28.95;;;17.50;;
50769;SDS011;36740;48.698;11.472;2022-11-15T06:34:54;42.78;;;13.40;;
50769;SDS011;36740;48.698;11.472;2022-11-15T06:37:40;18.00;;;12.55;;
50769;SDS011;36740;48.698;11.472;2022-11-15T06:40:28;17.23;;;9.32;;
50769;SDS011;36740;48.698;11.472;2022-11-15T06:43:14;20.48;;;9.75;;
50769;SDS011;36740;48.698;11.472;2022-11-15T06:46:00;24.35;;;13.90;;
50769;SDS011;36740;48.698;11.472;2022-11-15T06:48:47;24.98;;;12.00;;
50769;SDS011;36740;48.698;11.472;2022-11-15T06:51:35;21.38;;;12.90;;
50769;SDS011;36740;48.698;11.472;2022-11-15T06:54:21;13.43;;;10.30;;
50769;SDS011;36740;48.698;11.472;2022-11-15T06:57:07;14.68;;;10.27;;
50769;SDS011;36740;48.698;11.472;2022-11-15T06:59:56;20.85;;;11.32;;
50769;SDS011;36740;48.698;11.472;2022-11-15T07:02:42;21.73;;;13.85;;
50769;SDS011;36740;48.698;11.472;2022-11-15T07:05:28;16.40;;;11.45;;
50769;SDS011;36740;48.698;11.472;2022-11-15T07:08:14;14.80;;;12.10;;
50769;SDS011;36740;48.698;11.472;2022-11-15T07:11:01;43.58;;;14.38;;
50769;SDS011;36740;48.698;11.472;2022-11-15T07:13:48;29.67;;;11.30;;
50769;SDS011;36740;48.698;11.472;2022-11-15T07:16:34;15.82;;;11.68;;
50769;SDS011;36740;48.698;11.472;2022-11-15T07:19:22;22.10;;;13.90;;
50769;SDS011;36740;48.698;11.472;2022-11-15T07:22:07;16.05;;;10.48;;
50769;SDS011;36740;48.698;11.472;2022-11-15T07:24:53;16.63;;;12.88;;
50769;SDS011;36740;48.698;11.472;2022-11-15T07:27:39;19.60;;;12.32;;
50769;SDS011;36740;48.698;11.472;2022-11-15T07:30:25;11.50;;;8.68;;
50769;SDS011;36740;48.698;11.472;2022-11-15T07:33:12;29.33;;;15.52;;
50769;SDS011;36740;48.698;11.472;2022-11-15T07:36:01;28.80;;;15.73;;
50769;SDS011;36740;48.698;11.472;2022-11-15T07:38:47;28.17;;;15.73;;
50769;SDS011;36740;48.698;11.472;2022-11-15T07:41:33;46.67;;;19.65;;
50769;SDS011;36740;48.698;11.472;2022-11-15T07:44:20;39.75;;;11.25;;
50769;SDS011;36740;48.698;11.472;2022-11-15T07:47:06;28.48;;;12.90;;
50769;SDS011;36740;48.698;11.472;2022-11-15T07:49:51;56.13;;;13.57;;
50769;SDS011;36740;48.698;11.472;2022-11-15T07:52:37;25.17;;;14.30;;
50769;SDS011;36740;48.698;11.472;2022-11-15T07:55:23;33.08;;;21.27;;
50769;SDS011;36740;48.698;11.472;2022-11-15T07:58:10;91.25;;;54.88;;
50769;SDS011;36740;48.698;11.472;2022-11-15T08:00:57;41.15;;;25.00;;
50769;SDS011;36740;48.698;11.472;2022-11-15T08:03:43;61.92;;;17.60;;
50769;SDS011;36740;48.698;11.472;2022-11-15T08:06:28;47.63;;;30.80;;
50769;SDS011;36740;48.698;11.472;2022-11-15T08:09:14;24.27;;;18.08;;
50769;SDS011;36740;48.698;11.472;2022-11-15T08:12:00;40.08;;;22.92;;
50769;SDS011;36740;48.698;11.472;2022-11-15T08:14:46;18.25;;;14.73;;
50769;SDS011;36740;48.698;11.472;2022-11-15T08:17:31;17.00;;;12.95;;
50769;SDS011;36740;48.698;11.472;2022-11-15T08:20:19;19.40;;;12.57;;
50769;SDS011;36740;48.698;11.472;2022-11-15T08:23:05;17.75;;;11.93;;
50769;SDS011;36740;48.698;11.472;2022-11-15T08:25:51;12.40;;;9.88;;
50769;SDS011;36740;48.698;11.472;2022-11-15T08:28:37;18.85;;;11.95;;
50769;SDS011;36740;48.698;11.472;2022-11-15T08:31:23;11.05;;;8.48;;
50769;SDS011;36740;48.698;11.472;2022-11-15T08:34:09;13.57;;;8.38;;
50769;SDS011;36740;48.698;11.472;2022-11-15T08:36:55;12.02;;;9.35;;
50769;SDS011;36740;48.698;11.472;2022-11-15T08:39:40;12.88;;;10.15;;
50769;SDS011;36740;48.698;11.472;2022-11-15T08:42:26;12.10;;;7.35;;
50769;SDS011;36740;48.698;11.472;2022-11-15T08:45:12;15.05;;;8.48;;
50769;SDS011;36740;48.698;11.472;2022-11-15T08:48:00;10.95;;;8.20;;
50769;SDS011;36740;48.698;11.472;2022-11-15T08:50:46;8.77;;;6.60;;
50769;SDS011;36740;48.698;11.472;2022-11-15T08:53:33;8.18;;;5.28;;
50769;SDS011;36740;48.698;11.472;2022-11-15T08:56:19;13.20;;;7.35;;
50769;SDS011;36740;48.698;11.472;2022-11-15T08:59:06;7.82;;;6.60;;
50769;SDS011;36740;48.698;11.472;2022-11-15T09:01:51;10.43;;;6.05;;
50769;SDS011;36740;48.698;11.472;2022-11-15T09:04:39;7.90;;;6.25;;
50769;SDS011;36740;48.698;11.472;2022-11-15T09:07:26;8.60;;;6.22;;
50769;SDS011;36740;48.698;11.472;2022-11-15T09:10:15;12.05;;;6.85;;
50769;SDS011;36740;48.698;11.472;2022-11-15T09:13:01;10.13;;;6.57;;
50769;SDS011;36740;48.698;11.472;2022-11-15T09:15:46;8.75;;;5.38;;
50769;SDS011;36740;48.698;11.472;2022-11-15T09:18:32;8.90;;;4.63;;
50769;SDS011;36740;48.698;11.472;2022-11-15T09:21:18;9.30;;;6.25;;
50769;SDS011;36740;48.698;11.472;2022-11-15T09:24:05;9.30;;;6.15;;
50769;SDS011;36740;48.698;11.472;2022-11-15T09:26:51;12.70;;;6.90;;
50769;SDS011;36740;48.698;11.472;2022-11-15T09:29:37;13.27;;;6.78;;
50769;SDS011;36740;48.698;11.472;2022-11-15T09:32:23;12.68;;;6.28;;
50769;SDS011;36740;48.698;11.472;2022-11-15T09:35:09;9.85;;;6.03;;
50769;SDS011;36740;48.698;11.472;2022-11-15T09:37:57;11.88;;;7.07;;
50769;SDS011;36740;48.698;11.472;2022-11-15T09:40:43;11.63;;;7.38;;
50769;SDS011;36740;48.698;11.472;2022-11-15T09:43:32;8.18;;;5.97;;
50769;SDS011;36740;48.698;11.472;2022-11-15T09:50:06;6.78;;;4.50;;
50769;SDS011;36740;48.698;11.472;2022-11-15T09:52:55;12.90;;;6.95;;
50769;SDS011;36740;48.698;11.472;2022-11-15T09:55:53;11.80;;;8.77;;
50769;SDS011;36740;48.698;11.472;2022-11-15T10:05:17;9.23;;;6.22;;
50769;SDS011;36740;48.698;11.472;2022-11-15T10:08:16;10.05;;;7.00;;
50769;SDS011;36740;48.698;11.472;2022-11-15T10:11:09;12.25;;;7.05;;
50769;SDS011;36740;48.698;11.472;2022-11-15T10:13:59;17.23;;;9.43;;
50769;SDS011;36740;48.698;11.472;2022-11-15T10:23:10;9.95;;;6.65;;
50769;SDS011;36740;48.698;11.472;2022-11-15T10:25:59;12.75;;;6.47;;
50769;SDS011;36740;48.698;11.472;2022-11-15T10:28:45;10.60;;;6.55;;
50769;SDS011;36740;48.698;11.472;2022-11-15T10:31:33;9.88;;;6.85;;
50769;SDS011;36740;48.698;11.472;2022-11-15T10:34:23;9.02;;;5.57;;
50769;SDS011;36740;48.698;11.472;2022-11-15T10:37:09;15.55;;;8.18;;
50769;SDS011;36740;48.698;11.472;2022-11-15T10:40:05;13.43;;;7.68;;
50769;SDS011;36740;48.698;11.472;2022-11-15T10:45:54;11.57;;;6.60;;
50769;SDS011;36740;48.698;11.472;2022-11-15T10:48:40;12.13;;;7.00;;
50769;SDS011;36740;48.698;11.472;2022-11-15T10:51:26;10.98;;;6.72;;
50769;SDS011;36740;48.698;11.472;2022-11-15T10:54:24;10.35;;;5.78;;
50769;SDS011;36740;48.698;11.472;2022-11-15T10:57:17;8.93;;;6.32;;
50769;SDS011;36740;48.698;11.472;2022-11-15T11:00:06;12.40;;;6.15;;
50769;SDS011;36740;48.698;11.472;2022-11-15T11:06:52;9.68;;;6.85;;
50769;SDS011;36740;48.698;11.472;2022-11-15T11:09:39;6.65;;;4.65;;
50769;SDS011;36740;48.698;11.472;2022-11-15T11:12:30;10.32;;;6.13;;
50769;SDS011;36740;48.698;11.472;2022-11-15T11:15:18;9.38;;;5.82;;
50769;SDS011;36740;48.698;11.472;2022-11-15T11:18:25;9.60;;;6.68;;
50769;SDS011;36740;48.698;11.472;2022-11-15T11:21:30;10.43;;;6.63;;
50769;SDS011;36740;48.698;11.472;2022-11-15T11:24:23;15.20;;;6.85;;
50769;SDS011;36740;48.698;11.472;2022-11-15T11:27:25;9.48;;;5.45;;
50769;SDS011;36740;48.698;11.472;2022-11-15T11:33:08;10.20;;;7.55;;
50769;SDS011;36740;48.698;11.472;2022-11-15T11:36:10;7.95;;;5.30;;
50769;SDS011;36740;48.698;11.472;2022-11-15T11:48:44;8.90;;;5.43;;
50769;SDS011;36740;48.698;11.472;2022-11-15T11:51:36;8.90;;;5.40;;
50769;SDS011;36740;48.698;11.472;2022-11-15T11:57:37;8.68;;;5.70;;
50769;SDS011;36740;48.698;11.472;2022-11-15T12:00:29;7.05;;;3.80;;
50769;SDS011;36740;48.698;11.472;2022-11-15T12:03:30;7.72;;;4.13;;
50769;SDS011;36740;48.698;11.472;2022-11-15T12:09:39;8.93;;;4.75;;
50769;SDS011;36740;48.698;11.472;2022-11-15T12:15:59;9.32;;;5.65;;
50769;SDS011;36740;48.698;11.472;2022-11-15T12:18:53;7.50;;;3.97;;
50769;SDS011;36740;48.698;11.472;2022-11-15T12:24:33;9.68;;;5.40;;
50769;SDS011;36740;48.698;11.472;2022-11-15T12:27:35;10.00;;;5.43;;
50769;SDS011;36740;48.698;11.472;2022-11-15T12:30:27;12.48;;;7.28;;
50769;SDS011;36740;48.698;11.472;2022-11-15T12:36:36;6.85;;;4.30;;
50769;SDS011;36740;48.698;11.472;2022-11-15T12:45:49;9.63;;;5.70;;
50769;SDS011;36740;48.698;11.472;2022-11-15T12:51:22;7.45;;;4.97;;
50769;SDS011;36740;48.698;11.472;2022-11-15T12:57:34;9.40;;;4.80;;
50769;SDS011;36740;48.698;11.472;2022-11-15T13:03:23;8.75;;;5.88;;
50769;SDS011;36740;48.698;11.472;2022-11-15T13:06:33;10.48;;;4.57;;
50769;SDS011;36740;48.698;11.472;2022-11-15T13:17:57;10.68;;;6.15;;
50769;SDS011;36740;48.698;11.472;2022-11-15T13:20:44;11.48;;;5.43;;
50769;SDS011;36740;48.698;11.472;2022-11-15T13:23:30;8.43;;;5.10;;
50769;SDS011;36740;48.698;11.472;2022-11-15T13:26:16;10.40;;;5.03;;
50769;SDS011;36740;48.698;11.472;2022-11-15T13:29:02;8.05;;;5.95;;
50769;SDS011;36740;48.698;11.472;2022-11-15T13:31:48;10.23;;;5.40;;
50769;SDS011;36740;48.698;11.472;2022-11-15T13:34:34;8.18;;;4.65;;
50769;SDS011;36740;48.698;11.472;2022-11-15T13:43:55;7.95;;;4.57;;
50769;SDS011;36740;48.698;11.472;2022-11-15T13:46:23;12.45;;;5.63;;
50769;SDS011;36740;48.698;11.472;2022-11-15T13:49:13;6.90;;;5.07;;
50769;SDS011;36740;48.698;11.472;2022-11-15T13:52:00;8.73;;;4.88;;
50769;SDS011;36740;48.698;11.472;2022-11-15T13:54:57;7.53;;;5.57;;
50769;SDS011;36740;48.698;11.472;2022-11-15T13:57:59;8.15;;;5.45;;
50769;SDS011;36740;48.698;11.472;2022-11-15T14:00:58;9.75;;;4.30;;
50769;SDS011;36740;48.698;11.472;2022-11-15T14:03:48;6.05;;;4.45;;
50769;SDS011;36740;48.698;11.472;2022-11-15T14:06:47;11.48;;;6.05;;
50769;SDS011;36740;48.698;11.472;2022-11-15T14:21:34;7.53;;;5.35;;
50769;SDS011;36740;48.698;11.472;2022-11-15T14:24:21;13.80;;;7.43;;
50769;SDS011;36740;48.698;11.472;2022-11-15T14:27:20;9.30;;;6.85;;
50769;SDS011;36740;48.698;11.472;2022-11-15T14:30:12;10.07;;;5.07;;
50769;SDS011;36740;48.698;11.472;2022-11-15T14:32:58;15.35;;;5.95;;
50769;SDS011;36740;48.698;11.472;2022-11-15T14:35:44;13.68;;;7.03;;
50769;SDS011;36740;48.698;11.472;2022-11-15T14:38:30;10.15;;;4.18;;
50769;SDS011;36740;48.698;11.472;2022-11-15T14:41:21;12.18;;;5.88;;
50769;SDS011;36740;48.698;11.472;2022-11-15T14:44:09;9.15;;;5.60;;
50769;SDS011;36740;48.698;11.472;2022-11-15T14:46:56;9.05;;;5.72;;
50769;SDS011;36740;48.698;11.472;2022-11-15T14:49:42;6.70;;;4.57;;
50769;SDS011;36740;48.698;11.472;2022-11-15T14:52:30;8.77;;;5.70;;
50769;SDS011;36740;48.698;11.472;2022-11-15T14:55:24;11.95;;;6.93;;
50769;SDS011;36740;48.698;11.472;2022-11-15T14:58:14;9.55;;;5.18;;
50769;SDS011;36740;48.698;11.472;2022-11-15T15:01:01;10.93;;;4.45;;
50769;SDS011;36740;48.698;11.472;2022-11-15T15:03:49;8.80;;;6.00;;
50769;SDS011;36740;48.698;11.472;2022-11-15T15:06:37;9.45;;;6.15;;
50769;SDS011;36740;48.698;11.472;2022-11-15T15:09:23;13.40;;;6.82;;
50769;SDS011;36740;48.698;11.472;2022-11-15T15:12:14;12.40;;;6.05;;
50769;SDS011;36740;48.698;11.472;2022-11-15T15:15:04;14.88;;;7.85;;
50769;SDS011;36740;48.698;11.472;2022-11-15T15:17:51;8.50;;;5.65;;
50769;SDS011;36740;48.698;11.472;2022-11-15T15:20:40;8.82;;;5.88;;
50769;SDS011;36740;48.698;11.472;2022-11-15T15:23:26;8.95;;;5.25;;
50769;SDS011;36740;48.698;11.472;2022-11-15T15:26:16;7.90;;;4.90;;
50769;SDS011;36740;48.698;11.472;2022-11-15T15:29:01;14.20;;;6.45;;
50769;SDS011;36740;48.698;11.472;2022-11-15T15:31:47;12.38;;;6.38;;
50769;SDS011;36740;48.698;11.472;2022-11-15T15:34:33;12.32;;;8.18;;
50769;SDS011;36740;48.698;11.472;2022-11-15T15:37:25;16.48;;;10.63;;
50769;SDS011;36740;48.698;11.472;2022-11-15T15:40:19;18.08;;;11.70;;
50769;SDS011;36740;48.698;11.472;2022-11-15T15:43:06;17.13;;;7.95;;
50769;SDS011;36740;48.698;11.472;2022-11-15T15:45:54;21.98;;;9.60;;
50769;SDS011;36740;48.698;11.472;2022-11-15T15:48:40;28.17;;;16.67;;
50769;SDS011;36740;48.698;11.472;2022-11-15T15:51:26;24.10;;;11.73;;
50769;SDS011;36740;48.698;11.472;2022-11-15T15:54:12;21.05;;;13.80;;
50769;SDS011;36740;48.698;11.472;2022-11-15T15:56:57;25.05;;;13.02;;
50769;SDS011;36740;48.698;11.472;2022-11-15T15:59:43;23.10;;;15.65;;
50769;SDS011;36740;48.698;11.472;2022-11-15T16:02:29;21.20;;;12.30;;
50769;SDS011;36740;48.698;11.472;2022-11-15T16:05:15;35.47;;;11.55;;
50769;SDS011;36740;48.698;11.472;2022-11-15T16:08:01;23.77;;;13.43;;
50769;SDS011;36740;48.698;11.472;2022-11-15T16:10:47;19.13;;;14.13;;
50769;SDS011;36740;48.698;11.472;2022-11-15T16:13:33;30.40;;;15.15;;
50769;SDS011;36740;48.698;11.472;2022-11-15T16:16:18;30.05;;;12.77;;
50769;SDS011;36740;48.698;11.472;2022-11-15T16:19:07;30.42;;;20.65;;
50769;SDS011;36740;48.698;11.472;2022-11-15T16:21:54;23.65;;;14.45;;
50769;SDS011;36740;48.698;11.472;2022-11-15T16:24:39;18.88;;;10.23;;
50769;SDS011;36740;48.698;11.472;2022-11-15T16:27:25;23.90;;;13.00;;
50769;SDS011;36740;48.698;11.472;2022-11-15T16:30:15;21.38;;;11.32;;
50769;SDS011;36740;48.698;11.472;2022-11-15T16:33:03;21.08;;;13.25;;
50769;SDS011;36740;48.698;11.472;2022-11-15T16:35:49;22.65;;;13.27;;
50769;SDS011;36740;48.698;11.472;2022-11-15T16:38:35;14.32;;;8.93;;
50769;SDS011;36740;48.698;11.472;2022-11-15T16:41:22;16.70;;;8.68;;
50769;SDS011;36740;48.698;11.472;2022-11-15T16:44:10;12.52;;;9.98;;
50769;SDS011;36740;48.698;11.472;2022-11-15T16:46:56;21.13;;;10.43;;
50769;SDS011;36740;48.698;11.472;2022-11-15T16:49:42;12.43;;;8.73;;
50769;SDS011;36740;48.698;11.472;2022-11-15T16:52:29;17.10;;;10.98;;
50769;SDS011;36740;48.698;11.472;2022-11-15T16:55:15;14.18;;;8.82;;
50769;SDS011;36740;48.698;11.472;2022-11-15T16:58:01;17.52;;;10.77;;
50769;SDS011;36740;48.698;11.472;2022-11-15T17:00:50;21.17;;;11.77;;
50769;SDS011;36740;48.698;11.472;2022-11-15T17:03:37;23.00;;;11.35;;
50769;SDS011;36740;48.698;11.472;2022-11-15T17:06:24;9.70;;;7.88;;
50769;SDS011;36740;48.698;11.472;2022-11-15T17:09:20;20.88;;;10.13;;
50769;SDS011;36740;48.698;11.472;2022-11-15T17:12:10;14.27;;;8.40;;
50769;SDS011;36740;48.698;11.472;2022-11-15T17:14:56;15.52;;;9.38;;
50769;SDS011;36740;48.698;11.472;2022-11-15T17:17:41;11.00;;;7.47;;
50769;SDS011;36740;48.698;11.472;2022-11-15T17:20:28;13.45;;;8.40;;
50769;SDS011;36740;48.698;11.472;2022-11-15T17:23:14;16.95;;;9.73;;
50769;SDS011;36740;48.698;11.472;2022-11-15T17:26:01;13.13;;;8.30;;
50769;SDS011;36740;48.698;11.472;2022-11-15T17:28:53;14.57;;;10.13;;
50769;SDS011;36740;48.698;11.472;2022-11-15T17:31:41;10.38;;;7.30;;
50769;SDS011;36740;48.698;11.472;2022-11-15T17:34:26;12.13;;;8.32;;
50769;SDS011;36740;48.698;11.472;2022-11-15T17:37:12;11.90;;;8.98;;
50769;SDS011;36740;48.698;11.472;2022-11-15T17:39:58;12.93;;;7.40;;
50769;SDS011;36740;48.698;11.472;2022-11-15T17:42:44;14.27;;;7.97;;
50769;SDS011;36740;48.698;11.472;2022-11-15T17:45:30;9.15;;;7.47;;
50769;SDS011;36740;48.698;11.472;2022-11-15T17:48:16;9.38;;;7.10;;
50769;SDS011;36740;48.698;11.472;2022-11-15T17:51:06;10.70;;;6.20;;
50769;SDS011;36740;48.698;11.472;2022-11-15T17:53:55;11.70;;;7.70;;
50769;SDS011;36740;48.698;11.472;2022-11-15T17:56:40;11.05;;;7.43;;
50769;SDS011;36740;48.698;11.472;2022-11-15T17:59:26;14.85;;;6.18;;
50769;SDS011;36740;48.698;11.472;2022-11-15T18:02:12;8.98;;;6.18;;
50769;SDS011;36740;48.698;11.472;2022-11-15T18:04:58;10.35;;;5.32;;
50769;SDS011;36740;48.698;11.472;2022-11-15T18:07:44;12.15;;;8.45;;
50769;SDS011;36740;48.698;11.472;2022-11-15T18:10:29;9.38;;;6.10;;
50769;SDS011;36740;48.698;11.472;2022-11-15T18:13:15;13.13;;;7.35;;
50769;SDS011;36740;48.698;11.472;2022-11-15T18:16:02;9.82;;;6.88;;
50769;SDS011;36740;48.698;11.472;2022-11-15T18:18:49;12.65;;;7.60;;
50769;SDS011;36740;48.698;11.472;2022-11-15T18:21:35;12.02;;;8.52;;
50769;SDS011;36740;48.698;11.472;2022-11-15T18:24:40;10.65;;;7.97;;
50769;SDS011;36740;48.698;11.472;2022-11-15T18:27:27;13.30;;;8.25;;
50769;SDS011;36740;48.698;11.472;2022-11-15T18:30:13;12.88;;;6.53;;
50769;SDS011;36740;48.698;11.472;2022-11-15T18:32:59;13.35;;;6.32;;
50769;SDS011;36740;48.698;11.472;2022-11-15T18:35:45;14.07;;;8.00;;